sensor_id;sensor_type;location;lat;lon;timestamp;P1;durP1;ratioP1;P2;durP2;ratioP2
22144;SDS011;11238;48.730;11.566;2023-06-22T00:00:49;13.20;;;9.60;;
22144;SDS011;11238;48.730;11.566;2023-06-22T00:03:15;19.52;;;10.23;;
22144;SDS011;11238;48.730;11.566;2023-06-22T00:05:45;14.20;;;9.88;;
22144;SDS011;11238;48.730;11.566;2023-06-22T00:08:12;13.02;;;9.52;;
22144;SDS011;11238;48.730;11.566;2023-06-22T00:10:38;12.90;;;9.70;;
22144;SDS011;11238;48.730;11.566;2023-06-22T00:13:05;15.18;;;9.20;;
22144;SDS011;11238;48.730;11.566;2023-06-22T00:15:32;15.23;;;9.68;;
22144;SDS011;11238;48.730;11.566;2023-06-22T00:17:58;12.93;;;8.95;;
22144;SDS011;11238;48.730;11.566;2023-06-22T00:20:25;16.17;;;9.55;;
22144;SDS011;11238;48.730;11.566;2023-06-22T00:22:54;12.93;;;8.77;;
22144;SDS011;11238;48.730;11.566;2023-06-22T00:25:21;15.60;;;8.95;;
22144;SDS011;11238;48.730;11.566;2023-06-22T00:27:48;13.38;;;8.73;;
22144;SDS011;11238;48.730;11.566;2023-06-22T00:30:18;14.52;;;8.95;;
22144;SDS011;11238;48.730;11.566;2023-06-22T00:32:44;11.35;;;8.70;;
22144;SDS011;11238;48.730;11.566;2023-06-22T00:35:13;13.02;;;8.77;;
22144;SDS011;11238;48.730;11.566;2023-06-22T00:37:39;12.88;;;8.98;;
22144;SDS011;11238;48.730;11.566;2023-06-22T00:40:11;13.68;;;8.60;;
22144;SDS011;11238;48.730;11.566;2023-06-22T00:42:38;12.15;;;8.65;;
22144;SDS011;11238;48.730;11.566;2023-06-22T00:45:05;14.77;;;9.82;;
22144;SDS011;11238;48.730;11.566;2023-06-22T00:47:53;13.10;;;8.85;;
22144;SDS011;11238;48.730;11.566;2023-06-22T00:50:22;13.75;;;9.50;;
22144;SDS011;11238;48.730;11.566;2023-06-22T00:52:53;16.40;;;9.15;;
22144;SDS011;11238;48.730;11.566;2023-06-22T00:55:24;11.73;;;9.57;;
22144;SDS011;11238;48.730;11.566;2023-06-22T00:57:51;14.45;;;9.07;;
22144;SDS011;11238;48.730;11.566;2023-06-22T01:00:22;17.02;;;9.90;;
22144;SDS011;11238;48.730;11.566;2023-06-22T01:02:50;17.77;;;10.13;;
22144;SDS011;11238;48.730;11.566;2023-06-22T01:05:19;16.52;;;9.98;;
22144;SDS011;11238;48.730;11.566;2023-06-22T01:13:35;14.63;;;8.93;;
22144;SDS011;11238;48.730;11.566;2023-06-22T01:16:07;15.05;;;9.43;;
22144;SDS011;11238;48.730;11.566;2023-06-22T01:19:00;15.87;;;10.40;;
22144;SDS011;11238;48.730;11.566;2023-06-22T01:21:31;19.73;;;11.02;;
22144;SDS011;11238;48.730;11.566;2023-06-22T01:26:38;20.20;;;10.45;;
22144;SDS011;11238;48.730;11.566;2023-06-22T01:29:14;21.05;;;10.25;;
22144;SDS011;11238;48.730;11.566;2023-06-22T01:31:41;17.90;;;10.48;;
22144;SDS011;11238;48.730;11.566;2023-06-22T01:34:11;16.73;;;9.85;;
22144;SDS011;11238;48.730;11.566;2023-06-22T01:36:38;17.52;;;10.20;;
22144;SDS011;11238;48.730;11.566;2023-06-22T01:39:05;18.00;;;10.30;;
22144;SDS011;11238;48.730;11.566;2023-06-22T01:41:34;16.48;;;9.80;;
22144;SDS011;11238;48.730;11.566;2023-06-22T01:44:03;14.43;;;9.70;;
22144;SDS011;11238;48.730;11.566;2023-06-22T01:46:33;16.80;;;10.35;;
22144;SDS011;11238;48.730;11.566;2023-06-22T01:49:01;12.80;;;10.45;;
22144;SDS011;11238;48.730;11.566;2023-06-22T01:51:28;17.52;;;10.07;;
22144;SDS011;11238;48.730;11.566;2023-06-22T01:53:54;13.27;;;9.25;;
22144;SDS011;11238;48.730;11.566;2023-06-22T01:56:20;13.65;;;9.63;;
22144;SDS011;11238;48.730;11.566;2023-06-22T01:58:48;16.08;;;10.77;;
22144;SDS011;11238;48.730;11.566;2023-06-22T02:01:26;15.80;;;9.77;;
22144;SDS011;11238;48.730;11.566;2023-06-22T02:04:02;14.73;;;9.40;;
22144;SDS011;11238;48.730;11.566;2023-06-22T02:06:37;21.98;;;10.70;;
22144;SDS011;11238;48.730;11.566;2023-06-22T02:09:10;16.17;;;9.20;;
22144;SDS011;11238;48.730;11.566;2023-06-22T02:11:40;11.20;;;8.98;;
22144;SDS011;11238;48.730;11.566;2023-06-22T02:14:07;14.27;;;10.23;;
22144;SDS011;11238;48.730;11.566;2023-06-22T02:16:34;15.85;;;9.98;;
22144;SDS011;11238;48.730;11.566;2023-06-22T02:19:02;17.30;;;9.93;;
22144;SDS011;11238;48.730;11.566;2023-06-22T02:21:29;16.23;;;10.75;;
22144;SDS011;11238;48.730;11.566;2023-06-22T02:23:56;12.55;;;9.02;;
22144;SDS011;11238;48.730;11.566;2023-06-22T02:26:23;12.23;;;9.48;;
22144;SDS011;11238;48.730;11.566;2023-06-22T02:28:52;11.95;;;10.18;;
22144;SDS011;11238;48.730;11.566;2023-06-22T02:31:18;13.93;;;9.95;;
22144;SDS011;11238;48.730;11.566;2023-06-22T02:33:45;19.25;;;9.82;;
22144;SDS011;11238;48.730;11.566;2023-06-22T02:36:12;19.05;;;10.57;;
22144;SDS011;11238;48.730;11.566;2023-06-22T02:38:38;15.00;;;9.27;;
22144;SDS011;11238;48.730;11.566;2023-06-22T02:41:14;15.48;;;9.93;;
22144;SDS011;11238;48.730;11.566;2023-06-22T02:43:44;17.83;;;11.07;;
22144;SDS011;11238;48.730;11.566;2023-06-22T02:46:11;18.08;;;10.65;;
22144;SDS011;11238;48.730;11.566;2023-06-22T02:48:40;15.20;;;9.68;;
22144;SDS011;11238;48.730;11.566;2023-06-22T02:51:07;16.23;;;10.52;;
22144;SDS011;11238;48.730;11.566;2023-06-22T02:53:34;15.93;;;10.13;;
22144;SDS011;11238;48.730;11.566;2023-06-22T02:56:01;17.00;;;10.23;;
22144;SDS011;11238;48.730;11.566;2023-06-22T02:58:33;11.85;;;8.77;;
22144;SDS011;11238;48.730;11.566;2023-06-22T03:01:07;13.35;;;9.68;;
22144;SDS011;11238;48.730;11.566;2023-06-22T03:03:34;17.85;;;10.02;;
22144;SDS011;11238;48.730;11.566;2023-06-22T03:06:00;13.48;;;10.55;;
22144;SDS011;11238;48.730;11.566;2023-06-22T03:08:27;16.77;;;10.35;;
22144;SDS011;11238;48.730;11.566;2023-06-22T03:10:54;18.83;;;10.27;;
22144;SDS011;11238;48.730;11.566;2023-06-22T03:13:20;13.85;;;9.50;;
22144;SDS011;11238;48.730;11.566;2023-06-22T03:15:45;20.23;;;10.32;;
22144;SDS011;11238;48.730;11.566;2023-06-22T03:18:11;16.65;;;10.63;;
22144;SDS011;11238;48.730;11.566;2023-06-22T03:20:37;18.63;;;10.65;;
22144;SDS011;11238;48.730;11.566;2023-06-22T03:23:03;17.45;;;11.23;;
22144;SDS011;11238;48.730;11.566;2023-06-22T03:25:31;18.55;;;11.20;;
22144;SDS011;11238;48.730;11.566;2023-06-22T03:27:56;19.65;;;10.23;;
22144;SDS011;11238;48.730;11.566;2023-06-22T03:30:24;13.77;;;10.13;;
22144;SDS011;11238;48.730;11.566;2023-06-22T03:32:50;13.02;;;10.13;;
22144;SDS011;11238;48.730;11.566;2023-06-22T03:35:16;14.88;;;10.88;;
22144;SDS011;11238;48.730;11.566;2023-06-22T03:37:42;17.30;;;10.98;;
22144;SDS011;11238;48.730;11.566;2023-06-22T03:40:08;14.95;;;10.52;;
22144;SDS011;11238;48.730;11.566;2023-06-22T03:42:34;15.10;;;10.60;;
22144;SDS011;11238;48.730;11.566;2023-06-22T03:45:04;15.50;;;10.48;;
22144;SDS011;11238;48.730;11.566;2023-06-22T03:47:31;19.10;;;10.98;;
22144;SDS011;11238;48.730;11.566;2023-06-22T03:49:58;15.18;;;10.93;;
22144;SDS011;11238;48.730;11.566;2023-06-22T03:52:24;14.93;;;10.95;;
22144;SDS011;11238;48.730;11.566;2023-06-22T03:54:50;15.13;;;10.60;;
22144;SDS011;11238;48.730;11.566;2023-06-22T03:57:16;15.30;;;11.55;;
22144;SDS011;11238;48.730;11.566;2023-06-22T03:59:42;14.43;;;10.80;;
22144;SDS011;11238;48.730;11.566;2023-06-22T04:02:10;16.95;;;11.40;;
22144;SDS011;11238;48.730;11.566;2023-06-22T04:04:36;17.17;;;11.27;;
22144;SDS011;11238;48.730;11.566;2023-06-22T04:07:04;15.13;;;11.05;;
22144;SDS011;11238;48.730;11.566;2023-06-22T04:09:31;14.20;;;10.32;;
22144;SDS011;11238;48.730;11.566;2023-06-22T04:11:56;18.13;;;10.88;;
22144;SDS011;11238;48.730;11.566;2023-06-22T04:14:22;14.93;;;10.95;;
22144;SDS011;11238;48.730;11.566;2023-06-22T04:16:48;15.32;;;11.57;;
22144;SDS011;11238;48.730;11.566;2023-06-22T04:19:14;15.65;;;11.32;;
22144;SDS011;11238;48.730;11.566;2023-06-22T04:21:43;19.92;;;12.40;;
22144;SDS011;11238;48.730;11.566;2023-06-22T04:24:14;17.65;;;11.75;;
22144;SDS011;11238;48.730;11.566;2023-06-22T04:26:39;19.38;;;11.82;;
22144;SDS011;11238;48.730;11.566;2023-06-22T04:29:07;17.23;;;11.65;;
22144;SDS011;11238;48.730;11.566;2023-06-22T04:31:36;17.20;;;11.45;;
22144;SDS011;11238;48.730;11.566;2023-06-22T04:34:02;19.83;;;12.30;;
22144;SDS011;11238;48.730;11.566;2023-06-22T04:36:36;20.75;;;12.68;;
22144;SDS011;11238;48.730;11.566;2023-06-22T04:39:07;17.15;;;11.85;;
22144;SDS011;11238;48.730;11.566;2023-06-22T04:41:36;18.45;;;12.43;;
22144;SDS011;11238;48.730;11.566;2023-06-22T04:44:16;21.23;;;13.13;;
22144;SDS011;11238;48.730;11.566;2023-06-22T04:46:51;19.58;;;12.57;;
22144;SDS011;11238;48.730;11.566;2023-06-22T04:49:34;18.73;;;12.40;;
22144;SDS011;11238;48.730;11.566;2023-06-22T04:52:06;24.55;;;13.45;;
22144;SDS011;11238;48.730;11.566;2023-06-22T04:54:34;18.25;;;12.40;;
22144;SDS011;11238;48.730;11.566;2023-06-22T04:57:02;18.40;;;12.98;;
22144;SDS011;11238;48.730;11.566;2023-06-22T04:59:29;17.67;;;12.35;;
22144;SDS011;11238;48.730;11.566;2023-06-22T05:01:56;19.23;;;13.23;;
22144;SDS011;11238;48.730;11.566;2023-06-22T05:04:24;16.83;;;13.13;;
22144;SDS011;11238;48.730;11.566;2023-06-22T05:06:54;18.88;;;13.18;;
22144;SDS011;11238;48.730;11.566;2023-06-22T05:09:20;24.23;;;12.80;;
22144;SDS011;11238;48.730;11.566;2023-06-22T05:11:46;21.20;;;11.95;;
22144;SDS011;11238;48.730;11.566;2023-06-22T05:14:13;16.83;;;11.32;;
22144;SDS011;11238;48.730;11.566;2023-06-22T05:16:40;21.50;;;12.52;;
22144;SDS011;11238;48.730;11.566;2023-06-22T05:19:07;18.75;;;12.13;;
22144;SDS011;11238;48.730;11.566;2023-06-22T05:21:34;16.95;;;12.60;;
22144;SDS011;11238;48.730;11.566;2023-06-22T05:23:59;17.73;;;11.95;;
22144;SDS011;11238;48.730;11.566;2023-06-22T05:26:29;17.80;;;10.35;;
22144;SDS011;11238;48.730;11.566;2023-06-22T05:28:56;16.80;;;10.40;;
22144;SDS011;11238;48.730;11.566;2023-06-22T05:31:22;17.98;;;11.02;;
22144;SDS011;11238;48.730;11.566;2023-06-22T05:33:50;14.50;;;10.20;;
22144;SDS011;11238;48.730;11.566;2023-06-22T05:36:16;14.27;;;8.88;;
22144;SDS011;11238;48.730;11.566;2023-06-22T05:38:45;15.20;;;9.95;;
22144;SDS011;11238;48.730;11.566;2023-06-22T05:41:11;14.70;;;10.85;;
22144;SDS011;11238;48.730;11.566;2023-06-22T05:43:46;17.25;;;11.10;;
22144;SDS011;11238;48.730;11.566;2023-06-22T05:46:11;16.05;;;10.95;;
22144;SDS011;11238;48.730;11.566;2023-06-22T05:48:39;18.90;;;11.88;;
22144;SDS011;11238;48.730;11.566;2023-06-22T05:51:05;15.23;;;11.65;;
22144;SDS011;11238;48.730;11.566;2023-06-22T05:53:31;19.25;;;10.70;;
22144;SDS011;11238;48.730;11.566;2023-06-22T05:55:58;14.50;;;9.95;;
22144;SDS011;11238;48.730;11.566;2023-06-22T05:58:24;14.85;;;10.07;;
22144;SDS011;11238;48.730;11.566;2023-06-22T06:00:50;15.05;;;10.02;;
22144;SDS011;11238;48.730;11.566;2023-06-22T06:03:16;19.15;;;10.18;;
22144;SDS011;11238;48.730;11.566;2023-06-22T06:05:43;14.40;;;9.13;;
22144;SDS011;11238;48.730;11.566;2023-06-22T06:08:10;15.68;;;9.63;;
22144;SDS011;11238;48.730;11.566;2023-06-22T06:10:37;17.95;;;9.45;;
22144;SDS011;11238;48.730;11.566;2023-06-22T06:13:03;9.98;;;8.27;;
22144;SDS011;11238;48.730;11.566;2023-06-22T06:15:34;12.52;;;7.97;;
22144;SDS011;11238;48.730;11.566;2023-06-22T06:18:00;12.75;;;8.40;;
22144;SDS011;11238;48.730;11.566;2023-06-22T06:20:27;12.27;;;7.18;;
22144;SDS011;11238;48.730;11.566;2023-06-22T06:22:57;16.45;;;8.25;;
22144;SDS011;11238;48.730;11.566;2023-06-22T06:25:24;9.85;;;7.15;;
22144;SDS011;11238;48.730;11.566;2023-06-22T06:27:51;9.40;;;7.47;;
22144;SDS011;11238;48.730;11.566;2023-06-22T06:30:19;10.85;;;7.57;;
22144;SDS011;11238;48.730;11.566;2023-06-22T06:32:46;10.00;;;6.65;;
22144;SDS011;11238;48.730;11.566;2023-06-22T06:35:14;11.77;;;7.05;;
22144;SDS011;11238;48.730;11.566;2023-06-22T06:37:44;15.68;;;6.90;;
22144;SDS011;11238;48.730;11.566;2023-06-22T06:40:12;10.20;;;6.55;;
22144;SDS011;11238;48.730;11.566;2023-06-22T06:42:42;10.35;;;5.93;;
22144;SDS011;11238;48.730;11.566;2023-06-22T06:45:10;12.05;;;5.75;;
22144;SDS011;11238;48.730;11.566;2023-06-22T06:47:44;9.15;;;5.85;;
22144;SDS011;11238;48.730;11.566;2023-06-22T06:50:14;7.38;;;5.43;;
22144;SDS011;11238;48.730;11.566;2023-06-22T06:52:41;8.13;;;5.28;;
22144;SDS011;11238;48.730;11.566;2023-06-22T06:55:07;10.25;;;5.35;;
22144;SDS011;11238;48.730;11.566;2023-06-22T06:57:37;6.97;;;4.57;;
22144;SDS011;11238;48.730;11.566;2023-06-22T07:00:05;10.00;;;4.68;;
22144;SDS011;11238;48.730;11.566;2023-06-22T07:02:37;10.20;;;4.70;;
22144;SDS011;11238;48.730;11.566;2023-06-22T07:05:04;9.30;;;4.43;;
22144;SDS011;11238;48.730;11.566;2023-06-22T07:07:31;9.18;;;4.65;;
22144;SDS011;11238;48.730;11.566;2023-06-22T07:09:58;6.78;;;4.45;;
22144;SDS011;11238;48.730;11.566;2023-06-22T07:12:24;6.80;;;4.50;;
22144;SDS011;11238;48.730;11.566;2023-06-22T07:14:51;7.18;;;4.50;;
22144;SDS011;11238;48.730;11.566;2023-06-22T07:17:17;6.25;;;3.40;;
22144;SDS011;11238;48.730;11.566;2023-06-22T07:19:44;6.28;;;3.78;;
22144;SDS011;11238;48.730;11.566;2023-06-22T07:22:12;6.82;;;3.53;;
22144;SDS011;11238;48.730;11.566;2023-06-22T07:24:38;5.10;;;3.28;;
22144;SDS011;11238;48.730;11.566;2023-06-22T07:27:04;6.60;;;3.92;;
22144;SDS011;11238;48.730;11.566;2023-06-22T07:29:31;5.93;;;3.67;;
22144;SDS011;11238;48.730;11.566;2023-06-22T07:31:59;10.82;;;3.50;;
22144;SDS011;11238;48.730;11.566;2023-06-22T07:34:25;5.45;;;3.60;;
22144;SDS011;11238;48.730;11.566;2023-06-22T07:36:51;5.63;;;3.38;;
22144;SDS011;11238;48.730;11.566;2023-06-22T07:39:18;5.35;;;3.33;;
22144;SDS011;11238;48.730;11.566;2023-06-22T07:41:43;7.47;;;3.42;;
22144;SDS011;11238;48.730;11.566;2023-06-22T07:44:09;6.53;;;3.40;;
22144;SDS011;11238;48.730;11.566;2023-06-22T07:46:35;6.97;;;3.83;;
22144;SDS011;11238;48.730;11.566;2023-06-22T07:49:02;6.28;;;3.25;;
22144;SDS011;11238;48.730;11.566;2023-06-22T07:51:27;9.18;;;3.60;;
22144;SDS011;11238;48.730;11.566;2023-06-22T07:53:54;6.20;;;3.10;;
22144;SDS011;11238;48.730;11.566;2023-06-22T07:56:22;8.48;;;4.30;;
22144;SDS011;11238;48.730;11.566;2023-06-22T07:58:48;6.95;;;3.25;;
22144;SDS011;11238;48.730;11.566;2023-06-22T08:01:14;5.18;;;3.28;;
22144;SDS011;11238;48.730;11.566;2023-06-22T08:03:40;8.05;;;3.72;;
22144;SDS011;11238;48.730;11.566;2023-06-22T08:06:06;6.78;;;3.45;;
22144;SDS011;11238;48.730;11.566;2023-06-22T08:08:36;6.50;;;3.10;;
22144;SDS011;11238;48.730;11.566;2023-06-22T08:11:03;8.82;;;3.75;;
22144;SDS011;11238;48.730;11.566;2023-06-22T08:13:30;9.73;;;3.47;;
22144;SDS011;11238;48.730;11.566;2023-06-22T08:15:56;10.65;;;3.15;;
22144;SDS011;11238;48.730;11.566;2023-06-22T08:18:22;8.10;;;3.17;;
22144;SDS011;11238;48.730;11.566;2023-06-22T08:20:48;6.95;;;3.50;;
22144;SDS011;11238;48.730;11.566;2023-06-22T08:23:14;6.57;;;3.50;;
22144;SDS011;11238;48.730;11.566;2023-06-22T08:25:41;8.40;;;3.40;;
22144;SDS011;11238;48.730;11.566;2023-06-22T08:28:06;6.75;;;3.25;;
22144;SDS011;11238;48.730;11.566;2023-06-22T08:30:33;12.88;;;3.92;;
22144;SDS011;11238;48.730;11.566;2023-06-22T08:32:58;11.07;;;4.13;;
22144;SDS011;11238;48.730;11.566;2023-06-22T08:35:24;9.27;;;3.67;;
22144;SDS011;11238;48.730;11.566;2023-06-22T08:37:50;7.32;;;3.28;;
22144;SDS011;11238;48.730;11.566;2023-06-22T08:40:21;9.45;;;3.63;;
22144;SDS011;11238;48.730;11.566;2023-06-22T08:42:48;7.80;;;3.33;;
22144;SDS011;11238;48.730;11.566;2023-06-22T08:58:31;7.07;;;3.55;;
22144;SDS011;11238;48.730;11.566;2023-06-22T09:00:57;10.63;;;3.28;;
22144;SDS011;11238;48.730;11.566;2023-06-22T09:03:25;9.88;;;4.00;;
22144;SDS011;11238;48.730;11.566;2023-06-22T09:05:52;9.25;;;3.75;;
22144;SDS011;11238;48.730;11.566;2023-06-22T09:08:17;15.18;;;4.80;;
22144;SDS011;11238;48.730;11.566;2023-06-22T09:10:46;10.60;;;4.30;;
22144;SDS011;11238;48.730;11.566;2023-06-22T09:13:12;7.10;;;4.45;;
22144;SDS011;11238;48.730;11.566;2023-06-22T09:15:38;7.60;;;3.95;;
22144;SDS011;11238;48.730;11.566;2023-06-22T09:18:04;10.70;;;4.03;;
22144;SDS011;11238;48.730;11.566;2023-06-22T09:20:31;16.08;;;4.22;;
22144;SDS011;11238;48.730;11.566;2023-06-22T09:22:57;9.02;;;3.92;;
22144;SDS011;11238;48.730;11.566;2023-06-22T09:25:23;12.05;;;3.70;;
22144;SDS011;11238;48.730;11.566;2023-06-22T09:27:49;7.47;;;3.45;;
22144;SDS011;11238;48.730;11.566;2023-06-22T09:30:15;19.52;;;4.68;;
22144;SDS011;11238;48.730;11.566;2023-06-22T09:32:41;10.30;;;3.95;;
22144;SDS011;11238;48.730;11.566;2023-06-22T09:35:08;10.10;;;3.78;;
22144;SDS011;11238;48.730;11.566;2023-06-22T09:37:35;10.23;;;4.10;;
22144;SDS011;11238;48.730;11.566;2023-06-22T09:40:01;9.73;;;3.80;;
22144;SDS011;11238;48.730;11.566;2023-06-22T09:42:33;8.55;;;4.35;;
22144;SDS011;11238;48.730;11.566;2023-06-22T09:45:00;12.73;;;4.10;;
22144;SDS011;11238;48.730;11.566;2023-06-22T09:47:27;12.52;;;5.45;;
22144;SDS011;11238;48.730;11.566;2023-06-22T09:49:54;11.13;;;5.50;;
22144;SDS011;11238;48.730;11.566;2023-06-22T09:52:21;15.98;;;6.20;;
22144;SDS011;11238;48.730;11.566;2023-06-22T09:54:47;8.60;;;4.10;;
22144;SDS011;11238;48.730;11.566;2023-06-22T09:57:13;12.57;;;4.40;;
22144;SDS011;11238;48.730;11.566;2023-06-22T09:59:39;10.23;;;3.72;;
22144;SDS011;11238;48.730;11.566;2023-06-22T10:02:07;8.70;;;4.82;;
22144;SDS011;11238;48.730;11.566;2023-06-22T10:04:33;13.85;;;4.53;;
22144;SDS011;11238;48.730;11.566;2023-06-22T10:07:00;10.90;;;4.28;;
22144;SDS011;11238;48.730;11.566;2023-06-22T10:09:26;17.10;;;4.63;;
22144;SDS011;11238;48.730;11.566;2023-06-22T10:11:52;14.00;;;4.47;;
22144;SDS011;11238;48.730;11.566;2023-06-22T10:14:18;11.32;;;4.28;;
22144;SDS011;11238;48.730;11.566;2023-06-22T10:16:43;18.23;;;4.70;;
22144;SDS011;11238;48.730;11.566;2023-06-22T10:19:09;11.65;;;4.28;;
22144;SDS011;11238;48.730;11.566;2023-06-22T10:21:35;12.75;;;4.35;;
22144;SDS011;11238;48.730;11.566;2023-06-22T10:24:02;11.75;;;4.60;;
22144;SDS011;11238;48.730;11.566;2023-06-22T10:26:31;10.25;;;4.45;;
22144;SDS011;11238;48.730;11.566;2023-06-22T10:28:58;14.60;;;4.30;;
22144;SDS011;11238;48.730;11.566;2023-06-22T10:31:24;11.05;;;4.43;;
22144;SDS011;11238;48.730;11.566;2023-06-22T10:33:51;15.85;;;5.18;;
22144;SDS011;11238;48.730;11.566;2023-06-22T10:36:16;10.27;;;4.10;;
22144;SDS011;11238;48.730;11.566;2023-06-22T10:38:42;11.68;;;4.35;;
22144;SDS011;11238;48.730;11.566;2023-06-22T10:41:08;9.38;;;4.10;;
22144;SDS011;11238;48.730;11.566;2023-06-22T10:43:34;11.52;;;4.68;;
22144;SDS011;11238;48.730;11.566;2023-06-22T10:45:59;10.73;;;4.85;;
22144;SDS011;11238;48.730;11.566;2023-06-22T10:48:25;13.10;;;4.57;;
22144;SDS011;11238;48.730;11.566;2023-06-22T10:50:51;12.25;;;4.30;;
22144;SDS011;11238;48.730;11.566;2023-06-22T10:53:18;12.80;;;4.50;;
22144;SDS011;11238;48.730;11.566;2023-06-22T10:55:44;11.52;;;4.20;;
22144;SDS011;11238;48.730;11.566;2023-06-22T10:58:10;11.68;;;4.40;;
22144;SDS011;11238;48.730;11.566;2023-06-22T11:00:36;11.82;;;4.60;;
22144;SDS011;11238;48.730;11.566;2023-06-22T11:03:02;10.32;;;5.15;;
22144;SDS011;11238;48.730;11.566;2023-06-22T11:05:28;8.73;;;4.15;;
22144;SDS011;11238;48.730;11.566;2023-06-22T11:07:54;11.90;;;4.28;;
22144;SDS011;11238;48.730;11.566;2023-06-22T11:10:20;9.75;;;4.63;;
22144;SDS011;11238;48.730;11.566;2023-06-22T11:12:46;11.80;;;4.63;;
22144;SDS011;11238;48.730;11.566;2023-06-22T11:15:11;11.98;;;5.43;;
22144;SDS011;11238;48.730;11.566;2023-06-22T11:17:37;11.88;;;4.38;;
22144;SDS011;11238;48.730;11.566;2023-06-22T11:20:03;12.98;;;5.00;;
22144;SDS011;11238;48.730;11.566;2023-06-22T11:22:39;13.60;;;4.75;;
22144;SDS011;11238;48.730;11.566;2023-06-22T11:25:06;14.68;;;4.65;;
22144;SDS011;11238;48.730;11.566;2023-06-22T11:27:32;13.98;;;4.45;;
22144;SDS011;11238;48.730;11.566;2023-06-22T11:29:59;11.82;;;4.10;;
22144;SDS011;11238;48.730;11.566;2023-06-22T11:32:24;11.55;;;4.47;;
22144;SDS011;11238;48.730;11.566;2023-06-22T11:34:50;11.70;;;4.50;;
22144;SDS011;11238;48.730;11.566;2023-06-22T11:37:16;11.95;;;4.18;;
22144;SDS011;11238;48.730;11.566;2023-06-22T11:39:42;12.20;;;5.00;;
22144;SDS011;11238;48.730;11.566;2023-06-22T11:42:09;10.70;;;4.70;;
22144;SDS011;11238;48.730;11.566;2023-06-22T11:44:35;11.20;;;4.22;;
22144;SDS011;11238;48.730;11.566;2023-06-22T11:47:01;14.43;;;4.40;;
22144;SDS011;11238;48.730;11.566;2023-06-22T11:49:29;9.07;;;3.97;;
22144;SDS011;11238;48.730;11.566;2023-06-22T11:51:55;9.35;;;4.10;;
22144;SDS011;11238;48.730;11.566;2023-06-22T11:54:21;12.00;;;5.93;;
22144;SDS011;11238;48.730;11.566;2023-06-22T11:56:47;10.50;;;4.43;;
22144;SDS011;11238;48.730;11.566;2023-06-22T11:59:13;14.40;;;4.57;;
22144;SDS011;11238;48.730;11.566;2023-06-22T12:01:40;12.15;;;4.25;;
22144;SDS011;11238;48.730;11.566;2023-06-22T12:04:06;10.50;;;4.50;;
22144;SDS011;11238;48.730;11.566;2023-06-22T12:06:32;12.90;;;4.40;;
22144;SDS011;11238;48.730;11.566;2023-06-22T12:08:58;15.85;;;4.63;;
22144;SDS011;11238;48.730;11.566;2023-06-22T12:11:24;9.80;;;4.45;;
22144;SDS011;11238;48.730;11.566;2023-06-22T12:13:50;11.30;;;4.50;;
22144;SDS011;11238;48.730;11.566;2023-06-22T12:16:17;10.80;;;4.10;;
22144;SDS011;11238;48.730;11.566;2023-06-22T12:18:42;17.73;;;5.22;;
22144;SDS011;11238;48.730;11.566;2023-06-22T12:21:08;13.77;;;4.22;;
22144;SDS011;11238;48.730;11.566;2023-06-22T12:23:34;12.77;;;4.50;;
22144;SDS011;11238;48.730;11.566;2023-06-22T12:26:00;18.02;;;4.60;;
22144;SDS011;11238;48.730;11.566;2023-06-22T12:28:27;11.48;;;4.40;;
22144;SDS011;11238;48.730;11.566;2023-06-22T12:30:53;11.20;;;4.40;;
22144;SDS011;11238;48.730;11.566;2023-06-22T12:33:19;14.43;;;4.70;;
22144;SDS011;11238;48.730;11.566;2023-06-22T12:35:45;16.98;;;4.70;;
22144;SDS011;11238;48.730;11.566;2023-06-22T12:38:14;13.98;;;5.20;;
22144;SDS011;11238;48.730;11.566;2023-06-22T12:40:40;16.75;;;4.70;;
22144;SDS011;11238;48.730;11.566;2023-06-22T12:43:07;15.85;;;4.70;;
22144;SDS011;11238;48.730;11.566;2023-06-22T12:45:32;12.15;;;4.78;;
22144;SDS011;11238;48.730;11.566;2023-06-22T12:47:59;14.05;;;4.35;;
22144;SDS011;11238;48.730;11.566;2023-06-22T12:50:26;16.98;;;4.65;;
22144;SDS011;11238;48.730;11.566;2023-06-22T12:52:51;20.92;;;4.93;;
22144;SDS011;11238;48.730;11.566;2023-06-22T12:55:17;10.18;;;4.35;;
22144;SDS011;11238;48.730;11.566;2023-06-22T12:57:43;10.38;;;4.38;;
22144;SDS011;11238;48.730;11.566;2023-06-22T13:00:09;13.50;;;5.07;;
22144;SDS011;11238;48.730;11.566;2023-06-22T13:02:36;12.23;;;4.50;;
22144;SDS011;11238;48.730;11.566;2023-06-22T13:05:02;13.05;;;4.72;;
22144;SDS011;11238;48.730;11.566;2023-06-22T13:07:30;15.82;;;4.88;;
22144;SDS011;11238;48.730;11.566;2023-06-22T13:09:56;10.35;;;4.50;;
22144;SDS011;11238;48.730;11.566;2023-06-22T13:12:22;14.65;;;4.60;;
22144;SDS011;11238;48.730;11.566;2023-06-22T13:14:48;13.77;;;4.40;;
22144;SDS011;11238;48.730;11.566;2023-06-22T13:17:15;12.00;;;4.70;;
22144;SDS011;11238;48.730;11.566;2023-06-22T13:19:41;14.30;;;4.78;;
22144;SDS011;11238;48.730;11.566;2023-06-22T13:22:25;18.92;;;4.93;;
22144;SDS011;11238;48.730;11.566;2023-06-22T13:24:55;12.68;;;4.70;;
22144;SDS011;11238;48.730;11.566;2023-06-22T13:27:21;11.68;;;4.53;;
22144;SDS011;11238;48.730;11.566;2023-06-22T13:29:48;19.08;;;4.80;;
22144;SDS011;11238;48.730;11.566;2023-06-22T13:32:14;11.27;;;4.35;;
22144;SDS011;11238;48.730;11.566;2023-06-22T13:34:39;13.60;;;4.47;;
22144;SDS011;11238;48.730;11.566;2023-06-22T13:37:05;18.65;;;5.40;;
22144;SDS011;11238;48.730;11.566;2023-06-22T13:39:31;14.95;;;4.50;;
22144;SDS011;11238;48.730;11.566;2023-06-22T13:41:57;13.95;;;4.78;;
22144;SDS011;11238;48.730;11.566;2023-06-22T13:44:23;14.65;;;4.60;;
22144;SDS011;11238;48.730;11.566;2023-06-22T13:46:55;12.63;;;4.80;;
22144;SDS011;11238;48.730;11.566;2023-06-22T13:49:21;14.50;;;4.82;;
22144;SDS011;11238;48.730;11.566;2023-06-22T13:51:47;13.00;;;4.55;;
22144;SDS011;11238;48.730;11.566;2023-06-22T13:54:14;12.45;;;4.40;;
22144;SDS011;11238;48.730;11.566;2023-06-22T13:56:40;13.98;;;4.55;;
22144;SDS011;11238;48.730;11.566;2023-06-22T13:59:07;12.93;;;4.97;;
22144;SDS011;11238;48.730;11.566;2023-06-22T14:01:35;12.18;;;4.43;;
22144;SDS011;11238;48.730;11.566;2023-06-22T14:04:02;12.35;;;4.72;;
22144;SDS011;11238;48.730;11.566;2023-06-22T14:06:27;14.98;;;5.10;;
22144;SDS011;11238;48.730;11.566;2023-06-22T14:08:53;15.93;;;4.97;;
22144;SDS011;11238;48.730;11.566;2023-06-22T14:11:37;20.23;;;4.57;;
22144;SDS011;11238;48.730;11.566;2023-06-22T14:14:03;16.25;;;4.90;;
22144;SDS011;11238;48.730;11.566;2023-06-22T14:16:30;17.63;;;5.15;;
22144;SDS011;11238;48.730;11.566;2023-06-22T14:18:56;13.23;;;4.10;;
22144;SDS011;11238;48.730;11.566;2023-06-22T14:21:22;17.13;;;4.50;;
22144;SDS011;11238;48.730;11.566;2023-06-22T14:23:48;12.15;;;5.15;;
22144;SDS011;11238;48.730;11.566;2023-06-22T14:26:35;11.63;;;4.78;;
22144;SDS011;11238;48.730;11.566;2023-06-22T14:29:01;14.85;;;4.28;;
22144;SDS011;11238;48.730;11.566;2023-06-22T14:31:26;18.75;;;4.63;;
22144;SDS011;11238;48.730;11.566;2023-06-22T14:33:52;16.95;;;4.85;;
22144;SDS011;11238;48.730;11.566;2023-06-22T14:36:18;18.40;;;4.90;;
22144;SDS011;11238;48.730;11.566;2023-06-22T14:38:44;15.88;;;4.65;;
22144;SDS011;11238;48.730;11.566;2023-06-22T14:41:11;12.27;;;4.30;;
22144;SDS011;11238;48.730;11.566;2023-06-22T14:43:59;13.43;;;4.57;;